sensor_id;sensor_type;location;lat;lon;timestamp;pressure;altitude;pressure_sealevel;temperature;humidity
77110;BME280;66062;52.464;16.922;2023-05-07T00:00:33;101297.63;;;6.84;100.00
77110;BME280;66062;52.464;16.922;2023-05-07T00:03:01;101285.63;;;6.91;100.00
77110;BME280;66062;52.464;16.922;2023-05-07T00:05:27;101293.88;;;6.86;100.00
77110;BME280;66062;52.464;16.922;2023-05-07T00:07:52;101295.50;;;6.89;100.00
77110;BME280;66062;52.464;16.922;2023-05-07T00:10:18;101290.00;;;6.92;100.00
77110;BME280;66062;52.464;16.922;2023-05-07T00:12:45;101292.00;;;6.88;100.00
77110;BME280;66062;52.464;16.922;2023-05-07T00:15:11;101300.59;;;6.92;100.00
77110;BME280;66062;52.464;16.922;2023-05-07T00:17:37;101289.34;;;6.88;100.00
77110;BME280;66062;52.464;16.922;2023-05-07T00:20:03;101293.88;;;6.86;100.00
77110;BME280;66062;52.464;16.922;2023-05-07T00:22:30;101297.97;;;6.65;100.00
77110;BME280;66062;52.464;16.922;2023-05-07T00:24:58;101292.31;;;6.84;100.00
77110;BME280;66062;52.464;16.922;2023-05-07T00:27:24;101295.13;;;6.81;100.00
77110;BME280;66062;52.464;16.922;2023-05-07T00:29:50;101294.03;;;6.71;100.00
77110;BME280;66062;52.464;16.922;2023-05-07T00:32:15;101290.09;;;6.64;100.00
77110;BME280;66062;52.464;16.922;2023-05-07T00:34:41;101289.22;;;6.63;100.00
77110;BME280;66062;52.464;16.922;2023-05-07T00:37:07;101294.16;;;6.69;100.00
77110;BME280;66062;52.464;16.922;2023-05-07T00:39:34;101290.09;;;6.64;100.00
77110;BME280;66062;52.464;16.922;2023-05-07T00:41:59;101296.28;;;6.77;100.00
77110;BME280;66062;52.464;16.922;2023-05-07T00:44:26;101299.84;;;6.63;100.00
77110;BME280;66062;52.464;16.922;2023-05-07T00:46:52;101300.78;;;6.62;100.00
77110;BME280;66062;52.464;16.922;2023-05-07T00:49:18;101303.81;;;6.56;100.00
77110;BME280;66062;52.464;16.922;2023-05-07T00:51:45;101304.38;;;6.61;100.00
77110;BME280;66062;52.464;16.922;2023-05-07T00:54:12;101313.38;;;6.73;100.00
77110;BME280;66062;52.464;16.922;2023-05-07T00:56:38;101307.31;;;6.57;100.00
77110;BME280;66062;52.464;16.922;2023-05-07T00:59:06;101314.16;;;6.47;100.00
77110;BME280;66062;52.464;16.922;2023-05-07T01:01:32;101312.38;;;6.33;100.00
77110;BME280;66062;52.464;16.922;2023-05-07T01:03:57;101310.84;;;6.43;100.00
77110;BME280;66062;52.464;16.922;2023-05-07T01:06:24;101312.00;;;6.39;100.00
77110;BME280;66062;52.464;16.922;2023-05-07T01:08:53;101319.38;;;6.34;100.00
77110;BME280;66062;52.464;16.922;2023-05-07T01:11:22;101315.97;;;6.32;100.00
77110;BME280;66062;52.464;16.922;2023-05-07T01:13:48;101307.63;;;6.38;100.00
77110;BME280;66062;52.464;16.922;2023-05-07T01:16:15;101309.91;;;6.44;100.00
77110;BME280;66062;52.464;16.922;2023-05-07T01:18:41;101306.69;;;6.39;100.00
77110;BME280;66062;52.464;16.922;2023-05-07T01:21:08;101301.75;;;6.47;100.00
77110;BME280;66062;52.464;16.922;2023-05-07T01:23:36;101308.19;;;6.43;100.00
77110;BME280;66062;52.464;16.922;2023-05-07T01:26:02;101315.22;;;6.44;100.00
77110;BME280;66062;52.464;16.922;2023-05-07T01:28:27;101315.59;;;6.38;100.00
77110;BME280;66062;52.464;16.922;2023-05-07T01:30:54;101315.19;;;6.30;100.00
77110;BME280;66062;52.464;16.922;2023-05-07T01:33:22;101314.63;;;6.25;100.00
77110;BME280;66062;52.464;16.922;2023-05-07T01:35:50;101312.97;;;6.24;100.00
77110;BME280;66062;52.464;16.922;2023-05-07T01:38:17;101314.06;;;6.20;100.00
77110;BME280;66062;52.464;16.922;2023-05-07T01:40:43;101319.56;;;6.03;100.00
77110;BME280;66062;52.464;16.922;2023-05-07T01:43:09;101321.44;;;6.00;100.00
77110;BME280;66062;52.464;16.922;2023-05-07T01:45:35;101315.56;;;5.95;100.00
77110;BME280;66062;52.464;16.922;2023-05-07T01:48:02;101326.47;;;6.05;100.00
77110;BME280;66062;52.464;16.922;2023-05-07T01:50:28;101328.16;;;5.92;100.00
77110;BME280;66062;52.464;16.922;2023-05-07T01:52:55;101327.09;;;5.94;100.00
77110;BME280;66062;52.464;16.922;2023-05-07T01:55:21;101326.66;;;6.02;100.00
77110;BME280;66062;52.464;16.922;2023-05-07T01:57:46;101324.66;;;6.06;100.00
77110;BME280;66062;52.464;16.922;2023-05-07T02:00:12;101326.56;;;6.04;100.00
77110;BME280;66062;52.464;16.922;2023-05-07T02:02:38;101317.56;;;6.20;100.00
77110;BME280;66062;52.464;16.922;2023-05-07T02:05:03;101316.16;;;6.29;100.00
77110;BME280;66062;52.464;16.922;2023-05-07T02:07:30;101319.38;;;6.20;100.00
77110;BME280;66062;52.464;16.922;2023-05-07T02:09:55;101319.19;;;6.09;100.00
77110;BME280;66062;52.464;16.922;2023-05-07T02:12:22;101319.78;;;6.14;100.00
77110;BME280;66062;52.464;16.922;2023-05-07T02:14:47;101329.50;;;6.13;100.00
77110;BME280;66062;52.464;16.922;2023-05-07T02:17:13;101324.88;;;6.31;100.00
77110;BME280;66062;52.464;16.922;2023-05-07T02:19:38;101330.00;;;6.34;100.00
77110;BME280;66062;52.464;16.922;2023-05-07T02:22:04;101330.53;;;6.25;100.00
77110;BME280;66062;52.464;16.922;2023-05-07T02:24:29;101331.88;;;6.32;100.00
77110;BME280;66062;52.464;16.922;2023-05-07T02:26:55;101336.69;;;6.25;100.00
77110;BME280;66062;52.464;16.922;2023-05-07T02:29:20;101339.06;;;6.16;100.00
77110;BME280;66062;52.464;16.922;2023-05-07T02:31:46;101345.69;;;6.09;100.00
77110;BME280;66062;52.464;16.922;2023-05-07T02:34:16;101345.28;;;6.00;100.00
77110;BME280;66062;52.464;16.922;2023-05-07T02:36:41;101345.41;;;5.99;100.00
77110;BME280;66062;52.464;16.922;2023-05-07T02:39:07;101349.84;;;5.98;100.00
77110;BME280;66062;52.464;16.922;2023-05-07T02:41:32;101349.03;;;5.82;100.00
77110;BME280;66062;52.464;16.922;2023-05-07T02:43:57;101344.34;;;5.87;100.00
77110;BME280;66062;52.464;16.922;2023-05-07T02:46:23;101345.00;;;5.91;100.00
77110;BME280;66062;52.464;16.922;2023-05-07T02:48:48;101337.28;;;5.86;100.00
77110;BME280;66062;52.464;16.922;2023-05-07T02:51:14;101341.50;;;5.90;100.00
77110;BME280;66062;52.464;16.922;2023-05-07T02:53:39;101330.16;;;6.03;100.00
77110;BME280;66062;52.464;16.922;2023-05-07T02:56:05;101334.59;;;6.02;100.00
77110;BME280;66062;52.464;16.922;2023-05-07T02:58:31;101331.88;;;6.18;100.00
77110;BME280;66062;52.464;16.922;2023-05-07T03:00:57;101333.47;;;6.06;100.00
77110;BME280;66062;52.464;16.922;2023-05-07T03:03:22;101338.41;;;5.98;100.00
77110;BME280;66062;52.464;16.922;2023-05-07T03:05:48;101334.31;;;6.07;100.00
77110;BME280;66062;52.464;16.922;2023-05-07T03:08:13;101333.56;;;6.05;100.00
77110;BME280;66062;52.464;16.922;2023-05-07T03:10:39;101338.31;;;6.14;100.00
77110;BME280;66062;52.464;16.922;2023-05-07T03:13:05;101352.88;;;6.21;100.00
77110;BME280;66062;52.464;16.922;2023-05-07T03:15:30;101344.94;;;6.21;100.00
77110;BME280;66062;52.464;16.922;2023-05-07T03:17:56;101360.53;;;6.25;100.00
77110;BME280;66062;52.464;16.922;2023-05-07T03:20:21;101364.25;;;6.09;100.00
77110;BME280;66062;52.464;16.922;2023-05-07T03:22:47;101366.41;;;6.16;100.00
77110;BME280;66062;52.464;16.922;2023-05-07T03:25:13;101371.63;;;6.18;100.00
77110;BME280;66062;52.464;16.922;2023-05-07T03:27:39;101364.06;;;6.26;100.00
77110;BME280;66062;52.464;16.922;2023-05-07T03:30:05;101365.47;;;6.17;100.00
77110;BME280;66062;52.464;16.922;2023-05-07T03:32:32;101372.19;;;6.09;100.00
77110;BME280;66062;52.464;16.922;2023-05-07T03:34:57;101369.34;;;6.26;100.00
77110;BME280;66062;52.464;16.922;2023-05-07T03:37:23;101371.63;;;6.18;100.00
77110;BME280;66062;52.464;16.922;2023-05-07T03:39:48;101371.63;;;6.18;100.00
77110;BME280;66062;52.464;16.922;2023-05-07T03:42:14;101364.16;;;6.38;100.00
77110;BME280;66062;52.464;16.922;2023-05-07T03:44:40;101373.34;;;6.47;100.00
77110;BME280;66062;52.464;16.922;2023-05-07T03:47:06;101373.91;;;6.52;100.00
77110;BME280;66062;52.464;16.922;2023-05-07T03:49:31;101366.25;;;6.33;100.00
77110;BME280;66062;52.464;16.922;2023-05-07T03:51:57;101371.72;;;6.30;100.00
77110;BME280;66062;52.464;16.922;2023-05-07T03:54:22;101369.19;;;6.29;100.00
77110;BME280;66062;52.464;16.922;2023-05-07T03:56:48;101373.34;;;6.33;100.00
77110;BME280;66062;52.464;16.922;2023-05-07T03:59:13;101366.53;;;6.43;100.00
77110;BME280;66062;52.464;16.922;2023-05-07T04:01:39;101374.41;;;6.44;100.00
77110;BME280;66062;52.464;16.922;2023-05-07T04:04:05;101386.69;;;6.45;100.00
77110;BME280;66062;52.464;16.922;2023-05-07T04:06:31;101381.50;;;6.58;100.00
77110;BME280;66062;52.464;16.922;2023-05-07T04:08:56;101390.19;;;6.74;100.00
77110;BME280;66062;52.464;16.922;2023-05-07T04:11:22;101399.31;;;6.70;100.00
77110;BME280;66062;52.464;16.922;2023-05-07T04:13:48;101399.75;;;6.63;100.00
77110;BME280;66062;52.464;16.922;2023-05-07T04:16:13;101408.78;;;6.60;100.00
77110;BME280;66062;52.464;16.922;2023-05-07T04:18:39;101402.13;;;6.67;100.00
77110;BME280;66062;52.464;16.922;2023-05-07T04:21:05;101401.94;;;6.56;100.00
77110;BME280;66062;52.464;16.922;2023-05-07T04:23:31;101405.94;;;6.49;100.00
77110;BME280;66062;52.464;16.922;2023-05-07T04:25:57;101402.50;;;6.47;100.00
77110;BME280;66062;52.464;16.922;2023-05-07T04:28:23;101404.78;;;6.39;100.00
77110;BME280;66062;52.464;16.922;2023-05-07T04:30:49;101414.91;;;6.47;100.00
77110;BME280;66062;52.464;16.922;2023-05-07T04:33:17;101424.38;;;6.51;100.00
77110;BME280;66062;52.464;16.922;2023-05-07T04:35:43;101416.53;;;6.63;100.00
77110;BME280;66062;52.464;16.922;2023-05-07T04:38:08;101430.25;;;6.56;100.00
77110;BME280;66062;52.464;16.922;2023-05-07T04:40:35;101420.97;;;6.63;100.00
77110;BME280;66062;52.464;16.922;2023-05-07T04:43:01;101427.53;;;6.85;100.00
77110;BME280;66062;52.464;16.922;2023-05-07T04:45:26;101429.28;;;7.13;100.00
77110;BME280;66062;52.464;16.922;2023-05-07T04:47:52;101431.44;;;7.07;100.00
77110;BME280;66062;52.464;16.922;2023-05-07T04:50:17;101432.56;;;7.31;100.00
77110;BME280;66062;52.464;16.922;2023-05-07T04:52:44;101430.47;;;7.36;97.96
77110;BME280;66062;52.464;16.922;2023-05-07T04:55:13;101435.44;;;7.55;100.00
77110;BME280;66062;52.464;16.922;2023-05-07T04:57:38;101436.84;;;7.73;99.67
77110;BME280;66062;52.464;16.922;2023-05-07T05:00:08;101437.09;;;7.83;96.39
77110;BME280;66062;52.464;16.922;2023-05-07T05:02:39;101440.66;;;7.96;94.68
77110;BME280;66062;52.464;16.922;2023-05-07T05:05:05;101448.81;;;7.93;94.49
77110;BME280;66062;52.464;16.922;2023-05-07T05:07:31;101454.41;;;8.02;93.10
77110;BME280;66062;52.464;16.922;2023-05-07T05:09:56;101458.47;;;8.21;91.59
77110;BME280;66062;52.464;16.922;2023-05-07T05:12:22;101449.38;;;7.98;91.73
77110;BME280;66062;52.464;16.922;2023-05-07T05:14:48;101446.13;;;8.07;90.04
77110;BME280;66062;52.464;16.922;2023-05-07T05:17:13;101448.22;;;8.41;86.91
77110;BME280;66062;52.464;16.922;2023-05-07T05:19:39;101451.72;;;8.42;88.54
77110;BME280;66062;52.464;16.922;2023-05-07T05:22:05;101451.69;;;8.92;89.20
77110;BME280;66062;52.464;16.922;2023-05-07T05:24:31;101446.47;;;8.91;84.56
77110;BME280;66062;52.464;16.922;2023-05-07T05:26:56;101459.03;;;8.89;83.59
77110;BME280;66062;52.464;16.922;2023-05-07T05:29:26;101454.34;;;8.80;85.13
77110;BME280;66062;52.464;16.922;2023-05-07T05:31:51;101458.31;;;8.49;86.13
77110;BME280;66062;52.464;16.922;2023-05-07T05:34:17;101463.63;;;8.74;86.49
77110;BME280;66062;52.464;16.922;2023-05-07T05:36:45;101465.34;;;8.75;85.96
77110;BME280;66062;52.464;16.922;2023-05-07T05:39:11;101473.31;;;8.75;86.32
77110;BME280;66062;52.464;16.922;2023-05-07T05:41:38;101474.78;;;8.79;84.02
77110;BME280;66062;52.464;16.922;2023-05-07T05:44:03;101473.88;;;8.68;85.71
77110;BME280;66062;52.464;16.922;2023-05-07T05:46:29;101478.84;;;8.85;84.81
77110;BME280;66062;52.464;16.922;2023-05-07T05:48:56;101473.19;;;8.64;86.72
77110;BME280;66062;52.464;16.922;2023-05-07T05:51:22;101481.72;;;8.82;84.95
77110;BME280;66062;52.464;16.922;2023-05-07T05:53:48;101481.41;;;8.74;83.09
77110;BME280;66062;52.464;16.922;2023-05-07T05:56:14;101481.09;;;8.91;85.08
77110;BME280;66062;52.464;16.922;2023-05-07T05:58:40;101479.50;;;8.88;86.37
77110;BME280;66062;52.464;16.922;2023-05-07T06:01:05;101480.75;;;8.95;86.31
77110;BME280;66062;52.464;16.922;2023-05-07T06:03:31;101478.03;;;9.33;84.77
77110;BME280;66062;52.464;16.922;2023-05-07T06:05:57;101473.31;;;9.50;84.27
77110;BME280;66062;52.464;16.922;2023-05-07T06:08:23;101473.91;;;10.24;79.66
77110;BME280;66062;52.464;16.922;2023-05-07T06:10:48;101477.91;;;10.87;74.55
77110;BME280;66062;52.464;16.922;2023-05-07T06:13:14;101473.41;;;10.99;72.91
77110;BME280;66062;52.464;16.922;2023-05-07T06:15:40;101471.34;;;11.13;70.47
77110;BME280;66062;52.464;16.922;2023-05-07T06:18:05;101479.66;;;12.70;64.86
77110;BME280;66062;52.464;16.922;2023-05-07T06:20:31;101476.47;;;13.37;62.03
77110;BME280;66062;52.464;16.922;2023-05-07T06:22:56;101469.81;;;13.81;60.63
77110;BME280;66062;52.464;16.922;2023-05-07T06:25:22;101473.19;;;13.83;60.51
77110;BME280;66062;52.464;16.922;2023-05-07T06:27:47;101481.44;;;13.41;61.51
77110;BME280;66062;52.464;16.922;2023-05-07T06:30:13;101484.06;;;12.71;61.67
77110;BME280;66062;52.464;16.922;2023-05-07T06:32:40;101477.03;;;12.28;64.98
77110;BME280;66062;52.464;16.922;2023-05-07T06:35:06;101482.69;;;13.07;60.39
77110;BME280;66062;52.464;16.922;2023-05-07T06:37:31;101469.69;;;12.51;60.86
77110;BME280;66062;52.464;16.922;2023-05-07T06:39:57;101475.69;;;13.46;58.48
77110;BME280;66062;52.464;16.922;2023-05-07T06:42:22;101472.19;;;13.64;58.74
77110;BME280;66062;52.464;16.922;2023-05-07T06:44:48;101475.88;;;13.83;57.16
77110;BME280;66062;52.464;16.922;2023-05-07T06:47:13;101476.81;;;12.41;61.32
77110;BME280;66062;52.464;16.922;2023-05-07T06:49:39;101476.59;;;14.04;57.12
77110;BME280;66062;52.464;16.922;2023-05-07T06:52:04;101489.31;;;14.21;55.73
77110;BME280;66062;52.464;16.922;2023-05-07T06:54:30;101479.69;;;13.99;55.23
77110;BME280;66062;52.464;16.922;2023-05-07T06:56:55;101484.63;;;14.23;55.94
77110;BME280;66062;52.464;16.922;2023-05-07T06:59:20;101480.69;;;14.18;55.62
77110;BME280;66062;52.464;16.922;2023-05-07T07:01:46;101473.78;;;17.13;49.55
77110;BME280;66062;52.464;16.922;2023-05-07T07:04:12;101475.97;;;15.51;49.22
77110;BME280;66062;52.464;16.922;2023-05-07T07:06:37;101489.25;;;14.79;53.06
77110;BME280;66062;52.464;16.922;2023-05-07T07:09:03;101480.81;;;17.39;45.88
77110;BME280;66062;52.464;16.922;2023-05-07T07:11:28;101469.31;;;15.91;49.84
77110;BME280;66062;52.464;16.922;2023-05-07T07:13:54;101490.78;;;15.55;50.06
77110;BME280;66062;52.464;16.922;2023-05-07T07:16:21;101491.28;;;14.48;53.53
77110;BME280;66062;52.464;16.922;2023-05-07T07:18:46;101475.38;;;15.48;50.38
77110;BME280;66062;52.464;16.922;2023-05-07T07:21:11;101501.72;;;13.04;56.83
77110;BME280;66062;52.464;16.922;2023-05-07T07:23:37;101500.56;;;13.77;56.79
77110;BME280;66062;52.464;16.922;2023-05-07T07:26:02;101498.72;;;14.92;54.16
77110;BME280;66062;52.464;16.922;2023-05-07T07:28:28;101499.88;;;14.71;53.83
77110;BME280;66062;52.464;16.922;2023-05-07T07:30:53;101496.72;;;16.04;50.75
77110;BME280;66062;52.464;16.922;2023-05-07T07:33:19;101501.56;;;16.79;47.92
77110;BME280;66062;52.464;16.922;2023-05-07T07:35:44;101501.19;;;15.40;50.20
77110;BME280;66062;52.464;16.922;2023-05-07T07:38:11;101509.22;;;13.80;54.42
77110;BME280;66062;52.464;16.922;2023-05-07T07:40:36;101511.44;;;13.65;55.65
77110;BME280;66062;52.464;16.922;2023-05-07T07:43:02;101505.59;;;12.90;57.61
77110;BME280;66062;52.464;16.922;2023-05-07T07:45:27;101517.53;;;13.07;57.79
77110;BME280;66062;52.464;16.922;2023-05-07T07:47:53;101521.31;;;13.25;56.74
77110;BME280;66062;52.464;16.922;2023-05-07T07:50:19;101524.50;;;12.89;56.86
77110;BME280;66062;52.464;16.922;2023-05-07T07:52:44;101520.16;;;14.46;55.18
77110;BME280;66062;52.464;16.922;2023-05-07T07:55:11;101521.59;;;13.71;54.45
77110;BME280;66062;52.464;16.922;2023-05-07T07:57:37;101521.53;;;14.21;53.38
77110;BME280;66062;52.464;16.922;2023-05-07T08:00:03;101528.88;;;14.09;54.25
77110;BME280;66062;52.464;16.922;2023-05-07T08:02:29;101518.69;;;14.71;53.74
77110;BME280;66062;52.464;16.922;2023-05-07T08:04:54;101518.09;;;14.86;51.72
77110;BME280;66062;52.464;16.922;2023-05-07T08:07:20;101525.66;;;14.44;54.86
77110;BME280;66062;52.464;16.922;2023-05-07T08:09:48;101521.44;;;15.72;49.55
77110;BME280;66062;52.464;16.922;2023-05-07T08:12:13;101525.25;;;15.52;51.92
77110;BME280;66062;52.464;16.922;2023-05-07T08:14:40;101534.22;;;14.00;53.77
77110;BME280;66062;52.464;16.922;2023-05-07T08:17:06;101549.28;;;13.32;54.43
77110;BME280;66062;52.464;16.922;2023-05-07T08:19:31;101544.56;;;12.73;58.08
77110;BME280;66062;52.464;16.922;2023-05-07T08:21:57;101550.31;;;12.69;58.50
77110;BME280;66062;52.464;16.922;2023-05-07T08:24:23;101550.38;;;14.48;53.75
77110;BME280;66062;52.464;16.922;2023-05-07T08:26:48;101549.44;;;13.70;54.04
77110;BME280;66062;52.464;16.922;2023-05-07T08:29:14;101548.47;;;12.49;59.26
77110;BME280;66062;52.464;16.922;2023-05-07T08:31:40;101551.78;;;12.09;61.10
77110;BME280;66062;52.464;16.922;2023-05-07T08:34:06;101551.88;;;12.92;60.40
77110;BME280;66062;52.464;16.922;2023-05-07T08:36:32;101555.59;;;13.61;59.29
77110;BME280;66062;52.464;16.922;2023-05-07T08:38:58;101548.03;;;13.76;56.35
77110;BME280;66062;52.464;16.922;2023-05-07T08:41:24;101559.78;;;13.45;58.01
77110;BME280;66062;52.464;16.922;2023-05-07T08:43:50;101555.41;;;12.72;60.56
77110;BME280;66062;52.464;16.922;2023-05-07T08:46:18;101551.19;;;12.37;62.63
77110;BME280;66062;52.464;16.922;2023-05-07T08:48:44;101561.84;;;11.63;64.87
77110;BME280;66062;52.464;16.922;2023-05-07T08:51:17;101568.84;;;12.81;59.63
77110;BME280;66062;52.464;16.922;2023-05-07T08:53:43;101561.94;;;14.10;55.88
77110;BME280;66062;52.464;16.922;2023-05-07T08:56:09;101563.66;;;14.11;56.19
77110;BME280;66062;52.464;16.922;2023-05-07T08:58:35;101570.16;;;13.08;57.32
77110;BME280;66062;52.464;16.922;2023-05-07T09:01:05;101570.38;;;12.11;63.54
77110;BME280;66062;52.464;16.922;2023-05-07T09:03:32;101579.88;;;12.47;61.06
77110;BME280;66062;52.464;16.922;2023-05-07T09:05:57;101577.28;;;12.56;61.86
77110;BME280;66062;52.464;16.922;2023-05-07T09:08:26;101576.25;;;12.36;62.95
77110;BME280;66062;52.464;16.922;2023-05-07T09:10:52;101584.75;;;12.73;63.47
77110;BME280;66062;52.464;16.922;2023-05-07T09:13:18;101583.88;;;12.73;62.17
77110;BME280;66062;52.464;16.922;2023-05-07T09:15:43;101591.41;;;12.15;63.19
77110;BME280;66062;52.464;16.922;2023-05-07T09:18:09;101589.19;;;11.77;62.77
77110;BME280;66062;52.464;16.922;2023-05-07T09:20:36;101590.28;;;11.86;66.12
77110;BME280;66062;52.464;16.922;2023-05-07T09:23:02;101590.63;;;12.04;64.74
77110;BME280;66062;52.464;16.922;2023-05-07T09:25:34;101584.31;;;11.71;66.00
77110;BME280;66062;52.464;16.922;2023-05-07T09:28:01;101581.75;;;11.92;63.95
77110;BME280;66062;52.464;16.922;2023-05-07T09:30:27;101587.75;;;12.27;62.07
77110;BME280;66062;52.464;16.922;2023-05-07T09:32:53;101588.16;;;12.12;62.14
77110;BME280;66062;52.464;16.922;2023-05-07T09:35:19;101593.56;;;12.32;61.47
77110;BME280;66062;52.464;16.922;2023-05-07T09:37:46;101584.41;;;12.35;60.63
77110;BME280;66062;52.464;16.922;2023-05-07T09:40:26;101583.22;;;12.80;58.98
77110;BME280;66062;52.464;16.922;2023-05-07T09:42:53;101585.84;;;12.92;59.01
77110;BME280;66062;52.464;16.922;2023-05-07T09:45:26;101586.59;;;13.14;59.82
77110;BME280;66062;52.464;16.922;2023-05-07T09:47:57;101590.56;;;13.41;58.17
77110;BME280;66062;52.464;16.922;2023-05-07T09:50:29;101584.53;;;13.27;59.63
77110;BME280;66062;52.464;16.922;2023-05-07T09:52:58;101602.88;;;12.70;58.45
77110;BME280;66062;52.464;16.922;2023-05-07T09:55:25;101600.66;;;12.96;57.55
77110;BME280;66062;52.464;16.922;2023-05-07T09:57:52;101592.88;;;12.51;61.04
77110;BME280;66062;52.464;16.922;2023-05-07T10:00:21;101613.06;;;12.23;62.14
77110;BME280;66062;52.464;16.922;2023-05-07T10:02:49;101605.81;;;12.03;61.87
77110;BME280;66062;52.464;16.922;2023-05-07T10:05:16;101614.91;;;12.12;63.46
77110;BME280;66062;52.464;16.922;2023-05-07T10:07:42;101605.31;;;12.41;60.96
77110;BME280;66062;52.464;16.922;2023-05-07T10:10:09;101608.19;;;13.02;60.94
77110;BME280;66062;52.464;16.922;2023-05-07T10:12:36;101603.63;;;12.40;59.92
77110;BME280;66062;52.464;16.922;2023-05-07T10:15:11;101607.50;;;13.00;59.30
77110;BME280;66062;52.464;16.922;2023-05-07T10:17:38;101611.75;;;13.53;57.81
77110;BME280;66062;52.464;16.922;2023-05-07T10:20:08;101610.56;;;13.16;58.50
77110;BME280;66062;52.464;16.922;2023-05-07T10:22:54;101606.72;;;12.56;60.54
77110;BME280;66062;52.464;16.922;2023-05-07T10:25:23;101617.88;;;12.29;60.81
77110;BME280;66062;52.464;16.922;2023-05-07T10:27:52;101622.91;;;12.34;61.80
77110;BME280;66062;52.464;16.922;2023-05-07T10:32:55;101616.69;;;12.86;60.46
77110;BME280;66062;52.464;16.922;2023-05-07T10:35:26;101619.34;;;12.65;59.76
77110;BME280;66062;52.464;16.922;2023-05-07T10:37:54;101620.69;;;12.60;61.40
77110;BME280;66062;52.464;16.922;2023-05-07T10:40:20;101616.09;;;12.62;62.92
77110;BME280;66062;52.464;16.922;2023-05-07T10:43:12;101611.59;;;13.04;60.31
77110;BME280;66062;52.464;16.922;2023-05-07T10:45:38;101615.53;;;12.79;60.46
77110;BME280;66062;52.464;16.922;2023-05-07T10:48:17;101619.22;;;12.35;60.06
77110;BME280;66062;52.464;16.922;2023-05-07T10:50:43;101614.00;;;13.07;59.24
77110;BME280;66062;52.464;16.922;2023-05-07T10:55:46;101631.13;;;12.42;60.88
77110;BME280;66062;52.464;16.922;2023-05-07T11:00:47;101627.03;;;13.62;59.18
77110;BME280;66062;52.464;16.922;2023-05-07T11:03:13;101620.53;;;13.55;57.88
77110;BME280;66062;52.464;16.922;2023-05-07T11:05:40;101613.84;;;13.40;59.40
77110;BME280;66062;52.464;16.922;2023-05-07T11:08:06;101612.53;;;14.14;58.29
77110;BME280;66062;52.464;16.922;2023-05-07T11:13:14;101623.22;;;13.25;59.44
77110;BME280;66062;52.464;16.922;2023-05-07T11:15:47;101624.19;;;14.63;57.53
77110;BME280;66062;52.464;16.922;2023-05-07T11:18:15;101624.22;;;15.85;50.77
77110;BME280;66062;52.464;16.922;2023-05-07T11:28:28;101629.47;;;13.35;55.28
77110;BME280;66062;52.464;16.922;2023-05-07T11:30:53;101623.81;;;15.43;50.99
77110;BME280;66062;52.464;16.922;2023-05-07T11:33:19;101620.16;;;15.25;51.87
77110;BME280;66062;52.464;16.922;2023-05-07T11:35:45;101619.41;;;14.67;51.44
77110;BME280;66062;52.464;16.922;2023-05-07T11:38:12;101629.50;;;14.25;52.45
77110;BME280;66062;52.464;16.922;2023-05-07T11:41:07;101634.72;;;13.46;53.86
77110;BME280;66062;52.464;16.922;2023-05-07T11:43:34;101637.41;;;13.77;53.39
77110;BME280;66062;52.464;16.922;2023-05-07T11:46:08;101625.53;;;13.39;52.41
77110;BME280;66062;52.464;16.922;2023-05-07T11:48:34;101632.59;;;13.40;51.89
77110;BME280;66062;52.464;16.922;2023-05-07T11:51:05;101629.34;;;13.77;51.67
77110;BME280;66062;52.464;16.922;2023-05-07T11:53:39;101633.09;;;14.73;50.45
77110;BME280;66062;52.464;16.922;2023-05-07T11:56:12;101630.59;;;15.47;48.36
77110;BME280;66062;52.464;16.922;2023-05-07T11:58:38;101625.34;;;15.55;47.05
77110;BME280;66062;52.464;16.922;2023-05-07T12:01:06;101623.16;;;16.23;46.86
77110;BME280;66062;52.464;16.922;2023-05-07T12:03:33;101623.94;;;15.51;47.79
77110;BME280;66062;52.464;16.922;2023-05-07T12:05:59;101617.09;;;15.94;46.53
77110;BME280;66062;52.464;16.922;2023-05-07T12:08:26;101623.41;;;15.75;47.76
77110;BME280;66062;52.464;16.922;2023-05-07T12:10:53;101639.19;;;14.46;51.88
77110;BME280;66062;52.464;16.922;2023-05-07T12:13:20;101643.78;;;13.76;53.28
77110;BME280;66062;52.464;16.922;2023-05-07T12:15:46;101630.91;;;13.69;52.95
77110;BME280;66062;52.464;16.922;2023-05-07T12:18:12;101625.75;;;15.60;49.88
77110;BME280;66062;52.464;16.922;2023-05-07T12:20:39;101617.56;;;16.52;44.53
77110;BME280;66062;52.464;16.922;2023-05-07T12:23:05;101630.66;;;16.02;44.90
77110;BME280;66062;52.464;16.922;2023-05-07T12:25:35;101620.94;;;15.45;45.70
77110;BME280;66062;52.464;16.922;2023-05-07T12:28:02;101636.81;;;14.72;50.67
77110;BME280;66062;52.464;16.922;2023-05-07T12:30:29;101640.56;;;14.31;52.88
77110;BME280;66062;52.464;16.922;2023-05-07T12:32:54;101633.78;;;14.27;53.36
77110;BME280;66062;52.464;16.922;2023-05-07T12:35:30;101636.03;;;14.32;52.53
77110;BME280;66062;52.464;16.922;2023-05-07T12:37:59;101634.38;;;14.40;51.28
77110;BME280;66062;52.464;16.922;2023-05-07T12:40:39;101630.66;;;16.29;49.07
77110;BME280;66062;52.464;16.922;2023-05-07T12:43:05;101628.31;;;16.16;46.66
77110;BME280;66062;52.464;16.922;2023-05-07T12:45:31;101631.84;;;14.87;51.53
77110;BME280;66062;52.464;16.922;2023-05-07T12:48:01;101636.34;;;15.06;50.80
77110;BME280;66062;52.464;16.922;2023-05-07T12:50:31;101631.06;;;15.79;47.29
77110;BME280;66062;52.464;16.922;2023-05-07T12:52:56;101639.72;;;15.73;48.47
77110;BME280;66062;52.464;16.922;2023-05-07T12:55:22;101635.84;;;15.86;48.03